createdAt,value
2023-06-17T00:00:45.645Z,98433.28
2023-06-17T00:03:12.390Z,98438.09
2023-06-17T00:05:39.522Z,98437.88
2023-06-17T00:08:06.044Z,98438.50
2023-06-17T00:10:32.685Z,98439.59
2023-06-17T00:12:59.696Z,98435.38
2023-06-17T00:15:26.507Z,98437.03
2023-06-17T00:17:53.342Z,98435.50
2023-06-17T00:20:20.274Z,98423.69
2023-06-17T00:22:48.148Z,98426.22
2023-06-17T00:25:14.749Z,98421.59
2023-06-17T00:27:41.639Z,98414.00
2023-06-17T00:30:08.889Z,98421.75
2023-06-17T00:32:35.910Z,98414.69
2023-06-17T00:35:06.936Z,98412.97
2023-06-17T00:37:33.630Z,98417.66
2023-06-17T00:40:00.467Z,98407.69
2023-06-17T00:42:26.995Z,98416.59
2023-06-17T00:44:53.730Z,98413.06
2023-06-17T00:47:20.776Z,98409.56
2023-06-17T00:49:48.284Z,98406.00
2023-06-17T00:52:31.061Z,98414.13
2023-06-17T00:55:02.537Z,98411.88
2023-06-17T00:57:30.386Z,98416.72
2023-06-17T00:59:56.956Z,98409.88
2023-06-17T01:02:26.818Z,98411.94
2023-06-17T01:04:55.336Z,98411.09
2023-06-17T01:07:41.344Z,98417.53
2023-06-17T01:10:18.203Z,98416.53
2023-06-17T01:12:47.687Z,98412.47
2023-06-17T01:15:17.559Z,98413.50
2023-06-17T01:17:47.311Z,98413.09
2023-06-17T01:20:14.962Z,98418.53
2023-06-17T01:22:42.673Z,98421.16
2023-06-17T01:25:10.679Z,98415.84
2023-06-17T01:27:37.218Z,98418.28
2023-06-17T01:30:04.154Z,98416.03
2023-06-17T01:32:30.802Z,98416.16
2023-06-17T01:35:00.508Z,98415.81
2023-06-17T01:37:33.061Z,98416.97
2023-06-17T01:40:01.974Z,98415.94
2023-06-17T01:42:32.763Z,98415.13
2023-06-17T01:45:06.272Z,98416.09
2023-06-17T01:47:33.332Z,98419.31
2023-06-17T01:50:01.709Z,98415.84
2023-06-17T01:52:28.490Z,98416.16
2023-06-17T01:54:55.426Z,98414.44
2023-06-17T01:57:22.088Z,98419.31
2023-06-17T01:59:48.781Z,98410.72
2023-06-17T02:02:15.920Z,98415.56
2023-06-17T02:04:42.732Z,98411.81
2023-06-17T02:07:11.371Z,98409.75
2023-06-17T02:09:38.691Z,98420.28
2023-06-17T02:12:06.491Z,98422.50
2023-06-17T02:14:34.359Z,98415.38
2023-06-17T02:17:01.566Z,98420.75
2023-06-17T02:19:30.196Z,98417.97
2023-06-17T02:21:56.873Z,98408.19
2023-06-17T02:24:23.731Z,98407.69
2023-06-17T02:26:50.891Z,98411.19
2023-06-17T02:29:18.158Z,98407.69
2023-06-17T02:31:44.864Z,98406.56
2023-06-17T02:34:11.501Z,98412.09
2023-06-17T02:36:41.068Z,98403.84
2023-06-17T02:39:08.027Z,98408.94
2023-06-17T02:41:34.948Z,98409.28
2023-06-17T02:44:01.504Z,98407.69
2023-06-17T02:46:28.539Z,98404.78
2023-06-17T02:48:56.126Z,98407.50
2023-06-17T02:51:23.326Z,98403.19
2023-06-17T02:53:51.226Z,98402.59
2023-06-17T02:56:18.317Z,98407.91
2023-06-17T02:58:46.781Z,98397.03
2023-06-17T03:01:14.120Z,98402.28
2023-06-17T03:03:42.950Z,98404.16
2023-06-17T03:06:10.451Z,98406.00
2023-06-17T03:08:41.374Z,98400.56
2023-06-17T03:11:08.491Z,98400.06
2023-06-17T03:13:35.021Z,98393.00
2023-06-17T03:16:02.451Z,98397.34
2023-06-17T03:18:29.547Z,98411.50
2023-06-17T03:20:56.248Z,98407.22
2023-06-17T03:23:23.032Z,98407.44
2023-06-17T03:25:51.207Z,98397.41
2023-06-17T03:28:18.985Z,98404.44
2023-06-17T03:30:46.201Z,98403.94
2023-06-17T03:33:14.630Z,98412.09
2023-06-17T03:35:41.793Z,98412.25
2023-06-17T03:38:10.292Z,98409.53
2023-06-17T03:40:37.660Z,98407.66
2023-06-17T03:43:04.130Z,98414.81
2023-06-17T03:45:31.874Z,98415.09
2023-06-17T03:47:59.483Z,98417.50
2023-06-17T03:50:26.200Z,98419.91
2023-06-17T03:52:52.836Z,98419.09
2023-06-17T03:55:19.418Z,98416.41
2023-06-17T03:57:46.243Z,98412.91
2023-06-17T04:00:14.962Z,98410.72
2023-06-17T04:02:46.153Z,98414.09
2023-06-17T04:05:14.389Z,98417.34
2023-06-17T04:07:41.276Z,98414.66
2023-06-17T04:10:09.601Z,98412.81
2023-06-17T04:12:39.935Z,98421.22
2023-06-17T04:15:08.172Z,98412.00
2023-06-17T04:17:37.314Z,98415.19
2023-06-17T04:20:13.883Z,98422.91
2023-06-17T04:22:41.913Z,98415.56
2023-06-17T04:25:10.920Z,98417.00
2023-06-17T04:27:37.980Z,98429.03
2023-06-17T04:30:06.689Z,98425.16
2023-06-17T04:32:36.426Z,98422.66
2023-06-17T04:35:06.357Z,98424.56
2023-06-17T04:37:33.954Z,98429.13
2023-06-17T04:40:00.863Z,98426.91
2023-06-17T04:42:27.842Z,98428.22
2023-06-17T04:44:54.450Z,98419.50
2023-06-17T04:47:21.192Z,98413.50
2023-06-17T04:49:49.002Z,98425.66
2023-06-17T04:52:15.561Z,98415.53
2023-06-17T04:54:42.953Z,98421.53
2023-06-17T04:57:09.758Z,98418.25
2023-06-17T04:59:36.286Z,98415.81
2023-06-17T05:02:03.289Z,98414.13
2023-06-17T05:04:30.172Z,98415.41
2023-06-17T05:06:56.732Z,98418.66
2023-06-17T05:09:23.845Z,98418.38
2023-06-17T05:11:50.869Z,98417.16
2023-06-17T05:14:17.479Z,98415.56
2023-06-17T05:16:44.177Z,98420.97
2023-06-17T05:19:10.750Z,98424.72
2023-06-17T05:21:37.276Z,98432.56
2023-06-17T05:24:04.112Z,98429.56
2023-06-17T05:26:30.981Z,98422.72
2023-06-17T05:28:58.207Z,98419.34
2023-06-17T05:31:24.802Z,98419.72
2023-06-17T05:33:51.472Z,98427.59
2023-06-17T05:36:18.011Z,98425.38
2023-06-17T05:38:44.494Z,98425.50
2023-06-17T05:41:11.103Z,98436.34
2023-06-17T05:43:37.701Z,98434.00
2023-06-17T05:46:04.249Z,98435.97
2023-06-17T05:48:30.820Z,98433.09
2023-06-17T05:50:57.443Z,98429.75
2023-06-17T05:53:23.968Z,98438.53
2023-06-17T05:55:50.560Z,98437.34
2023-06-17T05:58:17.080Z,98438.88
2023-06-17T06:00:43.592Z,98427.88
2023-06-17T06:03:10.157Z,98431.88
2023-06-17T06:05:37.040Z,98432.91
2023-06-17T06:08:03.655Z,98435.31
2023-06-17T06:10:30.199Z,98436.88
2023-06-17T06:12:56.871Z,98436.84
2023-06-17T06:15:24.614Z,98439.38
2023-06-17T06:17:51.199Z,98440.56
2023-06-17T06:20:17.855Z,98440.38
2023-06-17T06:22:44.627Z,98436.47
2023-06-17T06:25:11.392Z,98441.25
2023-06-17T06:27:37.940Z,98444.97
2023-06-17T06:30:04.770Z,98435.47
2023-06-17T06:32:31.399Z,98445.09
2023-06-17T06:34:58.026Z,98447.16
2023-06-17T06:37:24.651Z,98451.63
2023-06-17T06:39:51.245Z,98450.53
2023-06-17T06:42:17.779Z,98449.88
2023-06-17T06:44:44.264Z,98442.00
2023-06-17T06:47:10.776Z,98437.88
2023-06-17T06:49:37.276Z,98437.75
2023-06-17T06:52:04.059Z,98436.84
2023-06-17T06:54:30.672Z,98437.22
2023-06-17T06:56:57.843Z,98442.31
2023-06-17T06:59:24.311Z,98447.13
2023-06-17T07:01:50.940Z,98439.66
2023-06-17T07:04:17.885Z,98440.78
2023-06-17T07:06:44.474Z,98435.53
2023-06-17T07:09:11.070Z,98434.19
2023-06-17T07:11:37.566Z,98431.16
2023-06-17T07:14:04.194Z,98434.78
2023-06-17T07:16:30.932Z,98434.59
2023-06-17T07:18:57.575Z,98430.00
2023-06-17T07:21:24.117Z,98432.94
2023-06-17T07:23:51.842Z,98435.94
2023-06-17T07:26:18.385Z,98437.25
2023-06-17T07:28:44.993Z,98432.66
2023-06-17T07:31:11.972Z,98433.47
2023-06-17T07:33:38.591Z,98429.19
2023-06-17T07:36:05.190Z,98431.88
2023-06-17T07:38:34.069Z,98432.25
2023-06-17T07:41:01.277Z,98430.88
2023-06-17T07:43:27.880Z,98436.06
2023-06-17T07:45:54.456Z,98422.63
2023-06-17T07:48:21.257Z,98426.34
2023-06-17T07:50:47.825Z,98423.28
2023-06-17T07:53:14.566Z,98421.53
2023-06-17T07:55:41.063Z,98426.59
2023-06-17T07:58:07.651Z,98417.50
2023-06-17T08:00:34.177Z,98419.72
2023-06-17T08:03:01.099Z,98413.09
2023-06-17T08:05:27.663Z,98416.91
2023-06-17T08:07:54.179Z,98411.78
2023-06-17T08:10:21.126Z,98405.75
2023-06-17T08:12:48.614Z,98410.31
2023-06-17T08:15:15.263Z,98409.41
2023-06-17T08:17:41.922Z,98409.56
2023-06-17T08:20:11.237Z,98407.16
2023-06-17T08:22:37.963Z,98396.63
2023-06-17T08:25:04.678Z,98392.34
2023-06-17T08:27:32.185Z,98394.81
2023-06-17T08:29:59.948Z,98399.25
2023-06-17T08:32:26.737Z,98382.56
2023-06-17T08:34:53.317Z,98383.34
2023-06-17T08:37:19.799Z,98384.97
2023-06-17T08:39:46.316Z,98384.16
2023-06-17T08:42:12.872Z,98378.56
2023-06-17T08:44:45.626Z,98378.41
2023-06-17T08:47:18.670Z,98381.31
2023-06-17T08:49:45.642Z,98371.56
2023-06-17T08:52:14.892Z,98363.28
2023-06-17T08:54:41.945Z,98370.44
2023-06-17T08:57:13.972Z,98367.97
2023-06-17T08:59:43.569Z,98370.38
2023-06-17T09:02:13.264Z,98376.75
2023-06-17T09:04:41.025Z,98367.03
2023-06-17T09:07:10.761Z,98368.44
2023-06-17T09:09:38.207Z,98368.25
2023-06-17T09:12:06.982Z,98363.84
2023-06-17T09:14:34.384Z,98363.16
2023-06-17T09:17:02.094Z,98358.25
2023-06-17T09:19:31.428Z,98363.09
2023-06-17T09:22:06.187Z,98347.88
2023-06-17T09:24:33.184Z,98358.09
2023-06-17T09:26:59.911Z,98361.72
2023-06-17T09:29:30.435Z,98355.72
2023-06-17T09:31:57.431Z,98349.59
2023-06-17T09:34:25.806Z,98351.66
2023-06-17T09:37:01.512Z,98351.47
2023-06-17T09:39:32.229Z,98343.38
2023-06-17T09:42:09.052Z,98349.94
2023-06-17T09:44:38.123Z,98343.25
2023-06-17T09:47:09.162Z,98338.44
2023-06-17T09:49:37.915Z,98330.81
2023-06-17T09:52:06.865Z,98333.34
2023-06-17T09:54:37.015Z,98330.25
2023-06-17T09:57:06.852Z,98326.25
2023-06-17T09:59:33.512Z,98327.28
2023-06-17T10:02:00.126Z,98327.50
2023-06-17T10:04:26.839Z,98321.91
2023-06-17T10:06:54.301Z,98327.41
2023-06-17T10:09:21.278Z,98329.78
2023-06-17T10:11:52.171Z,98325.75
2023-06-17T10:14:24.932Z,98326.63
2023-06-17T10:16:52.150Z,98322.41
2023-06-17T10:19:23.862Z,98322.03
2023-06-17T10:21:53.084Z,98315.53
2023-06-17T10:24:20.877Z,98318.16
2023-06-17T10:26:51.381Z,98317.09
2023-06-17T10:29:18.500Z,98312.44
2023-06-17T10:31:45.105Z,98311.00
2023-06-17T10:34:16.879Z,98315.09
2023-06-17T10:36:43.371Z,98309.50
2023-06-17T10:39:13.751Z,98306.81
2023-06-17T10:41:43.051Z,98310.56
2023-06-17T10:44:21.611Z,98297.13
2023-06-17T10:46:51.916Z,98307.41
2023-06-17T10:49:19.999Z,98314.06
2023-06-17T10:52:00.276Z,98313.41
2023-06-17T10:54:34.243Z,98320.06
2023-06-17T10:57:05.809Z,98317.53
2023-06-17T10:59:33.304Z,98313.41
2023-06-17T11:02:05.221Z,98306.72
2023-06-17T11:04:33.264Z,98305.13
2023-06-17T11:07:00.900Z,98299.91
2023-06-17T11:09:28.655Z,98303.00
2023-06-17T11:11:56.241Z,98294.06
2023-06-17T11:14:23.524Z,98292.22
2023-06-17T11:16:50.761Z,98293.34
2023-06-17T11:19:17.357Z,98294.22
2023-06-17T11:21:43.977Z,98288.25
2023-06-17T11:24:12.270Z,98284.22
2023-06-17T11:26:38.858Z,98292.59
2023-06-17T11:29:06.230Z,98287.66
2023-06-17T11:31:41.557Z,98291.00
2023-06-17T11:34:09.666Z,98282.34
2023-06-17T11:36:39.383Z,98280.28
2023-06-17T11:39:05.982Z,98286.47
2023-06-17T11:41:34.711Z,98276.16
2023-06-17T11:44:02.040Z,98279.94
2023-06-17T11:46:28.676Z,98282.72
2023-06-17T11:48:56.397Z,98283.56
2023-06-17T11:51:24.149Z,98267.59
2023-06-17T11:53:51.428Z,98263.66
2023-06-17T11:56:23.262Z,98264.34
2023-06-17T11:58:53.084Z,98260.63
2023-06-17T12:01:24.759Z,98272.97
2023-06-17T12:03:51.682Z,98265.44
2023-06-17T12:06:19.769Z,98262.88
2023-06-17T12:08:55.841Z,98262.38
2023-06-17T12:11:26.459Z,98264.91
2023-06-17T12:13:53.497Z,98258.69
2023-06-17T12:16:36.666Z,98259.00
2023-06-17T12:19:06.271Z,98262.09
2023-06-17T12:21:34.100Z,98255.41
2023-06-17T12:24:00.910Z,98246.25
2023-06-17T12:26:28.090Z,98248.91
2023-06-17T12:28:55.544Z,98247.34
2023-06-17T12:31:23.179Z,98248.59
2023-06-17T12:33:50.206Z,98235.44
2023-06-17T12:36:17.887Z,98239.91
2023-06-17T12:38:45.744Z,98242.53
2023-06-17T12:41:12.595Z,98239.00
2023-06-17T12:43:40.573Z,98234.91
2023-06-17T12:46:09.665Z,98235.22
2023-06-17T12:48:36.367Z,98223.00
2023-06-17T12:51:08.028Z,98227.94
2023-06-17T12:53:35.638Z,98223.75
2023-06-17T12:56:02.417Z,98223.06
2023-06-17T12:58:29.224Z,98227.13
2023-06-17T13:00:56.107Z,98212.38
2023-06-17T13:03:22.912Z,98216.66
2023-06-17T13:05:51.168Z,98210.91
2023-06-17T13:08:18.480Z,98209.81
2023-06-17T13:10:45.067Z,98203.88
2023-06-17T13:13:11.831Z,98203.00
2023-06-17T13:15:38.901Z,98203.41
2023-06-17T13:18:05.707Z,98190.56
2023-06-17T13:20:32.753Z,98193.78
2023-06-17T13:23:00.800Z,98202.22
2023-06-17T13:25:27.608Z,98186.00
2023-06-17T13:27:55.126Z,98187.06
2023-06-17T13:30:21.911Z,98184.44
2023-06-17T13:32:48.894Z,98187.31
2023-06-17T13:35:15.499Z,98189.59
2023-06-17T13:37:42.035Z,98190.84
2023-06-17T13:40:09.131Z,98189.41
2023-06-17T13:42:35.651Z,98186.25
2023-06-17T13:45:02.381Z,98182.41
2023-06-17T13:47:29.149Z,98190.69
2023-06-17T13:49:55.801Z,98180.59
2023-06-17T13:52:22.291Z,98178.28
2023-06-17T13:54:48.895Z,98179.34
2023-06-17T13:57:16.126Z,98180.88
2023-06-17T13:59:43.274Z,98172.00
2023-06-17T14:02:10.030Z,98177.44
2023-06-17T14:04:36.859Z,98171.91
2023-06-17T14:07:03.502Z,98165.75
2023-06-17T14:09:30.453Z,98161.19
2023-06-17T14:11:57.414Z,98164.09
2023-06-17T14:14:23.967Z,98154.25
2023-06-17T14:16:50.680Z,98157.84
2023-06-17T14:19:17.236Z,98156.31
2023-06-17T14:21:56.087Z,98153.38
2023-06-17T14:24:22.819Z,98156.41
2023-06-17T14:26:52.970Z,98153.13
2023-06-17T14:29:19.539Z,98155.22
2023-06-17T14:31:46.097Z,98157.03
2023-06-17T14:34:12.635Z,98154.84
2023-06-17T14:36:39.174Z,98158.34
2023-06-17T14:39:05.929Z,98162.34
2023-06-17T14:41:33.773Z,98154.22
2023-06-17T14:44:00.645Z,98149.56
2023-06-17T14:46:27.221Z,98144.72
2023-06-17T14:48:54.288Z,98152.50
2023-06-17T14:51:20.839Z,98138.28
2023-06-17T14:53:47.358Z,98141.38
2023-06-17T14:56:33.551Z,98148.63
2023-06-17T14:59:01.963Z,98136.72
2023-06-17T15:01:33.293Z,98137.47
2023-06-17T15:04:00.341Z,98139.78
2023-06-17T15:06:26.925Z,98132.66
2023-06-17T15:09:02.140Z,98137.84
2023-06-17T15:11:28.642Z,98129.13
2023-06-17T15:13:55.165Z,98120.03
2023-06-17T15:16:22.632Z,98135.16
2023-06-17T15:18:49.185Z,98129.50
2023-06-17T15:21:15.918Z,98127.16
2023-06-17T15:23:42.921Z,98129.28
2023-06-17T15:26:10.383Z,98139.22
2023-06-17T15:28:37.650Z,98132.88
2023-06-17T15:31:04.226Z,98138.81
2023-06-17T15:33:30.886Z,98126.88
2023-06-17T15:35:57.640Z,98121.34
2023-06-17T15:38:24.139Z,98116.19
2023-06-17T15:40:50.958Z,98120.13
2023-06-17T15:43:17.434Z,98124.09
2023-06-17T15:45:43.922Z,98118.97
2023-06-17T15:48:10.543Z,98118.56
2023-06-17T15:50:37.483Z,98120.16
2023-06-17T15:53:04.066Z,98122.50
2023-06-17T15:55:30.720Z,98116.94
2023-06-17T15:57:57.363Z,98118.94
2023-06-17T16:00:24.180Z,98116.94
2023-06-17T16:02:50.926Z,98111.34
2023-06-17T16:05:17.509Z,98110.56
2023-06-17T16:07:44.082Z,98109.78
2023-06-17T16:10:11.139Z,98106.50
2023-06-17T16:12:38.644Z,98116.81
2023-06-17T16:15:08.906Z,98111.16
2023-06-17T16:17:36.395Z,98107.19
2023-06-17T16:20:03.020Z,98108.34
2023-06-17T16:22:29.581Z,98105.50
2023-06-17T16:24:56.188Z,98103.06
2023-06-17T16:27:22.886Z,98101.41
2023-06-17T16:29:49.384Z,98105.38
2023-06-17T16:32:16.093Z,98105.81
2023-06-17T16:34:43.393Z,98104.94
2023-06-17T16:37:10.420Z,98104.16
2023-06-17T16:39:37.103Z,98108.47
2023-06-17T16:42:06.589Z,98100.44
2023-06-17T16:44:33.918Z,98098.78
2023-06-17T16:47:00.656Z,98098.69
2023-06-17T16:49:27.184Z,98106.66
2023-06-17T16:51:53.805Z,98106.50
2023-06-17T16:54:20.341Z,98098.91
2023-06-17T16:56:47.040Z,98104.06
2023-06-17T16:59:13.734Z,98092.53
2023-06-17T17:01:41.350Z,98094.13
2023-06-17T17:04:13.377Z,98100.44
2023-06-17T17:06:40.882Z,98096.84
2023-06-17T17:09:07.961Z,98101.44
2023-06-17T17:11:34.511Z,98097.38
2023-06-17T17:14:01.725Z,98105.94
2023-06-17T17:16:28.741Z,98103.72
2023-06-17T17:18:55.477Z,98097.75
2023-06-17T17:21:22.048Z,98104.13
2023-06-17T17:23:48.617Z,98104.56
2023-06-17T17:26:15.269Z,98111.59
2023-06-17T17:28:42.941Z,98113.22
2023-06-17T17:31:10.116Z,98104.03
2023-06-17T17:33:37.063Z,98108.63
2023-06-17T17:36:03.835Z,98108.63
2023-06-17T17:38:31.317Z,98110.19
2023-06-17T17:40:57.829Z,98110.06
2023-06-17T17:43:24.314Z,98108.91
2023-06-17T17:45:50.846Z,98118.00
2023-06-17T17:48:17.450Z,98119.50
2023-06-17T17:50:44.072Z,98115.09
2023-06-17T17:53:10.704Z,98109.00
2023-06-17T17:55:37.248Z,98111.72
2023-06-17T17:58:04.261Z,98120.81
2023-06-17T18:00:30.786Z,98118.06
2023-06-17T18:02:57.525Z,98116.03
2023-06-17T18:05:24.082Z,98112.81
2023-06-17T18:07:50.930Z,98118.91
2023-06-17T18:10:17.507Z,98118.91
2023-06-17T18:12:43.996Z,98124.34
2023-06-17T18:15:11.487Z,98123.38
2023-06-17T18:17:38.420Z,98122.41
2023-06-17T18:20:06.122Z,98123.63
2023-06-17T18:22:32.668Z,98127.91
2023-06-17T18:24:59.198Z,98124.28
2023-06-17T18:27:35.094Z,98124.53
2023-06-17T18:30:04.429Z,98120.78
2023-06-17T18:32:31.268Z,98119.50
2023-06-17T18:34:57.824Z,98123.31
2023-06-17T18:37:24.309Z,98129.06
2023-06-17T18:39:50.872Z,98120.13
2023-06-17T18:42:17.385Z,98128.69
2023-06-17T18:44:44.660Z,98126.16
2023-06-17T18:47:11.451Z,98125.06
2023-06-17T18:49:38.697Z,98125.06
2023-06-17T18:52:05.710Z,98128.81
2023-06-17T18:54:32.755Z,98123.44
2023-06-17T18:56:59.365Z,98123.53
2023-06-17T18:59:25.842Z,98126.94
2023-06-17T19:01:52.479Z,98136.03
2023-06-17T19:04:19.228Z,98133.41
2023-06-17T19:06:45.829Z,98139.66
2023-06-17T19:09:12.400Z,98140.22
2023-06-17T19:11:38.945Z,98136.13
2023-06-17T19:14:05.878Z,98143.75
2023-06-17T19:16:32.482Z,98145.00
2023-06-17T19:18:59.311Z,98145.81
2023-06-17T19:21:25.845Z,98150.78
2023-06-17T19:23:53.117Z,98147.97
2023-06-17T19:26:19.779Z,98159.81
2023-06-17T19:28:46.380Z,98157.41
2023-06-17T19:31:12.923Z,98153.31
2023-06-17T19:33:39.442Z,98162.84
2023-06-17T19:36:06.515Z,98171.03
2023-06-17T19:38:33.704Z,98167.97
2023-06-17T19:41:00.387Z,98171.41
2023-06-17T19:43:27.162Z,98174.41
2023-06-17T19:45:55.506Z,98180.63
2023-06-17T19:48:22.163Z,98176.72
2023-06-17T19:50:48.704Z,98181.91
2023-06-17T19:53:15.291Z,98191.25
2023-06-17T19:55:42.290Z,98196.19
2023-06-17T19:58:08.812Z,98203.19
2023-06-17T20:00:37.520Z,98199.41
2023-06-17T20:03:04.427Z,98206.56
2023-06-17T20:05:31.176Z,98201.66
2023-06-17T20:07:57.746Z,98209.94
2023-06-17T20:10:24.527Z,98220.94
2023-06-17T20:12:51.773Z,98222.53
2023-06-17T20:15:18.334Z,98220.66
2023-06-17T20:17:44.875Z,98214.38
2023-06-17T20:20:14.076Z,98219.88
2023-06-17T20:22:41.602Z,98214.84
2023-06-17T20:25:08.524Z,98215.84
2023-06-17T20:27:35.139Z,98231.59
2023-06-17T20:30:01.628Z,98226.25
2023-06-17T20:32:28.226Z,98223.66
2023-06-17T20:34:54.816Z,98228.59
2023-06-17T20:37:21.474Z,98233.81
2023-06-17T20:39:48.002Z,98228.53
2023-06-17T20:42:14.603Z,98227.72
2023-06-17T20:44:41.196Z,98230.56
2023-06-17T20:47:08.990Z,98231.38
2023-06-17T20:49:36.362Z,98228.28
2023-06-17T20:52:03.104Z,98230.56
2023-06-17T20:54:29.629Z,98229.88
2023-06-17T20:56:57.242Z,98234.81
2023-06-17T20:59:25.489Z,98231.31
2023-06-17T21:01:52.441Z,98239.81
2023-06-17T21:04:19.181Z,98242.28
2023-06-17T21:06:45.886Z,98241.13
2023-06-17T21:09:13.796Z,98249.84
2023-06-17T21:11:40.532Z,98241.84
2023-06-17T21:14:07.140Z,98237.69
2023-06-17T21:16:33.762Z,98242.25
2023-06-17T21:19:00.398Z,98244.81
2023-06-17T21:21:29.946Z,98241.84
2023-06-17T21:23:56.547Z,98248.50
2023-06-17T21:26:23.310Z,98244.78
2023-06-17T21:28:49.917Z,98244.63
2023-06-17T21:31:16.425Z,98247.47
2023-06-17T21:33:43.027Z,98244.72
2023-06-17T21:36:09.581Z,98247.59
2023-06-17T21:38:36.073Z,98246.31
2023-06-17T21:41:02.730Z,98251.50
2023-06-17T21:43:33.243Z,98247.50
2023-06-17T21:46:00.991Z,98257.81
2023-06-17T21:48:28.190Z,98255.56
2023-06-17T21:50:54.672Z,98250.59
2023-06-17T21:53:21.313Z,98253.00
2023-06-17T21:55:48.134Z,98254.91
2023-06-17T21:58:14.706Z,98247.53
2023-06-17T22:00:41.258Z,98247.16
2023-06-17T22:03:07.894Z,98254.13
2023-06-17T22:05:34.958Z,98249.91
2023-06-17T22:08:01.451Z,98248.97
2023-06-17T22:10:27.944Z,98241.72
2023-06-17T22:12:55.602Z,98245.41
2023-06-17T22:15:22.201Z,98242.53
2023-06-17T22:17:48.756Z,98241.53
2023-06-17T22:20:15.652Z,98239.16
2023-06-17T22:22:42.642Z,98245.94
2023-06-17T22:25:09.451Z,98245.72
2023-06-17T22:27:36.030Z,98241.53
2023-06-17T22:30:03.572Z,98240.28
2023-06-17T22:32:30.092Z,98245.56
2023-06-17T22:34:58.643Z,98243.97
2023-06-17T22:37:25.622Z,98246.56
2023-06-17T22:39:52.181Z,98240.13
2023-06-17T22:42:18.738Z,98241.88
2023-06-17T22:44:45.256Z,98246.06
2023-06-17T22:47:11.831Z,98250.25
2023-06-17T22:49:38.389Z,98250.72
2023-06-17T22:52:05.473Z,98243.47
2023-06-17T22:54:32.887Z,98244.13
2023-06-17T22:56:59.437Z,98248.00
2023-06-17T22:59:25.932Z,98243.97
2023-06-17T23:01:52.928Z,98238.50
2023-06-17T23:04:19.452Z,98236.25
2023-06-17T23:06:46.265Z,98239.75
2023-06-17T23:09:12.787Z,98236.88
2023-06-17T23:11:39.314Z,98235.88
2023-06-17T23:14:05.835Z,98230.22
2023-06-17T23:16:32.761Z,98236.38
2023-06-17T23:18:59.465Z,98236.22
2023-06-17T23:21:27.071Z,98222.72
2023-06-17T23:23:53.773Z,98220.78
2023-06-17T23:26:20.313Z,98212.41
2023-06-17T23:28:46.834Z,98211.56
2023-06-17T23:31:15.027Z,98212.56
2023-06-17T23:33:41.662Z,98205.66
2023-06-17T23:36:08.805Z,98216.06
2023-06-17T23:38:40.533Z,98216.19
2023-06-17T23:41:07.238Z,98213.75
2023-06-17T23:43:33.754Z,98208.91
2023-06-17T23:46:01.156Z,98205.88
2023-06-17T23:48:28.127Z,98201.06
2023-06-17T23:50:54.709Z,98205.81
2023-06-17T23:53:21.281Z,98210.53
2023-06-17T23:55:48.317Z,98203.59
2023-06-17T23:58:15.143Z,98203.31
